sensor_id;sensor_type;location;lat;lon;timestamp;pressure;altitude;pressure_sealevel;temperature;humidity
28911;BME280;16028;42.642;23.310;2022-09-09T00:00:52;94247.88;;;18.30;88.77
28911;BME280;16028;42.642;23.310;2022-09-09T00:03:24;94242.63;;;18.30;88.80
28911;BME280;16028;42.642;23.310;2022-09-09T00:05:58;94236.34;;;18.31;88.68
28911;BME280;16028;42.642;23.310;2022-09-09T00:08:48;94245.63;;;18.27;88.96
28911;BME280;16028;42.642;23.310;2022-09-09T00:11:24;94238.28;;;18.23;88.86
28911;BME280;16028;42.642;23.310;2022-09-09T00:13:53;94240.47;;;18.19;89.00
28911;BME280;16028;42.642;23.310;2022-09-09T00:16:25;94254.00;;;18.16;89.30
28911;BME280;16028;42.642;23.310;2022-09-09T00:19:00;94246.03;;;18.10;89.45
28911;BME280;16028;42.642;23.310;2022-09-09T00:21:32;94253.88;;;18.03;89.77
28911;BME280;16028;42.642;23.310;2022-09-09T00:24:09;94237.28;;;18.03;90.06
28911;BME280;16028;42.642;23.310;2022-09-09T00:26:42;94228.28;;;17.97;90.57
28911;BME280;16028;42.642;23.310;2022-09-09T00:29:20;94219.53;;;17.90;90.91
28911;BME280;16028;42.642;23.310;2022-09-09T00:31:54;94217.53;;;17.92;90.78
28911;BME280;16028;42.642;23.310;2022-09-09T00:34:26;94215.34;;;17.95;90.49
28911;BME280;16028;42.642;23.310;2022-09-09T00:36:54;94206.00;;;17.93;90.09
28911;BME280;16028;42.642;23.310;2022-09-09T00:39:29;94205.81;;;17.94;90.41
28911;BME280;16028;42.642;23.310;2022-09-09T00:42:10;94201.13;;;17.90;90.22
28911;BME280;16028;42.642;23.310;2022-09-09T00:44:51;94193.56;;;17.87;90.72
28911;BME280;16028;42.642;23.310;2022-09-09T00:47:38;94196.63;;;17.90;90.93
28911;BME280;16028;42.642;23.310;2022-09-09T00:50:17;94201.97;;;17.97;90.74
28911;BME280;16028;42.642;23.310;2022-09-09T00:52:57;94204.44;;;17.98;91.58
28911;BME280;16028;42.642;23.310;2022-09-09T00:55:33;94202.63;;;17.99;91.11
28911;BME280;16028;42.642;23.310;2022-09-09T00:58:01;94195.28;;;17.94;90.78
28911;BME280;16028;42.642;23.310;2022-09-09T01:00:29;94207.63;;;17.94;91.13
28911;BME280;16028;42.642;23.310;2022-09-09T01:03:13;94203.53;;;17.91;90.82
28911;BME280;16028;42.642;23.310;2022-09-09T01:05:49;94204.66;;;17.82;91.49
28911;BME280;16028;42.642;23.310;2022-09-09T01:08:39;94207.91;;;17.84;91.88
28911;BME280;16028;42.642;23.310;2022-09-09T01:11:16;94214.13;;;17.77;91.93
28911;BME280;16028;42.642;23.310;2022-09-09T01:13:49;94206.59;;;17.74;92.25
28911;BME280;16028;42.642;23.310;2022-09-09T01:16:20;94208.34;;;17.67;92.39
28911;BME280;16028;42.642;23.310;2022-09-09T01:18:49;94212.16;;;17.64;92.72
28911;BME280;16028;42.642;23.310;2022-09-09T01:21:27;94213.16;;;17.63;92.53
28911;BME280;16028;42.642;23.310;2022-09-09T01:24:13;94210.25;;;17.58;92.80
28911;BME280;16028;42.642;23.310;2022-09-09T01:26:47;94206.19;;;17.56;93.08
28911;BME280;16028;42.642;23.310;2022-09-09T01:29:17;94195.75;;;17.48;93.60
28911;BME280;16028;42.642;23.310;2022-09-09T01:31:53;94199.00;;;17.50;93.83
28911;BME280;16028;42.642;23.310;2022-09-09T01:34:21;94203.06;;;17.52;93.99
28911;BME280;16028;42.642;23.310;2022-09-09T01:36:53;94205.91;;;17.51;94.32
28911;BME280;16028;42.642;23.310;2022-09-09T01:39:23;94213.59;;;17.52;94.04
28911;BME280;16028;42.642;23.310;2022-09-09T01:41:53;94220.31;;;17.55;93.81
28911;BME280;16028;42.642;23.310;2022-09-09T01:44:20;94223.66;;;17.48;93.77
28911;BME280;16028;42.642;23.310;2022-09-09T01:46:48;94223.25;;;17.45;94.49
28911;BME280;16028;42.642;23.310;2022-09-09T01:49:16;94219.78;;;17.44;94.44
28911;BME280;16028;42.642;23.310;2022-09-09T01:51:43;94221.97;;;17.41;94.75
28911;BME280;16028;42.642;23.310;2022-09-09T01:54:12;94236.41;;;17.45;94.26
28911;BME280;16028;42.642;23.310;2022-09-09T01:56:47;94234.94;;;17.42;94.29
28911;BME280;16028;42.642;23.310;2022-09-09T01:59:25;94229.56;;;17.36;95.10
28911;BME280;16028;42.642;23.310;2022-09-09T02:02:08;94226.94;;;17.36;95.32
28911;BME280;16028;42.642;23.310;2022-09-09T02:04:40;94223.94;;;17.39;95.17
28911;BME280;16028;42.642;23.310;2022-09-09T02:07:18;94219.88;;;17.36;95.51
28911;BME280;16028;42.642;23.310;2022-09-09T02:09:50;94226.56;;;17.39;95.28
28911;BME280;16028;42.642;23.310;2022-09-09T02:12:19;94231.78;;;17.32;94.88
28911;BME280;16028;42.642;23.310;2022-09-09T02:14:56;94215.28;;;17.24;95.00
28911;BME280;16028;42.642;23.310;2022-09-09T02:17:28;94210.47;;;17.27;95.24
28911;BME280;16028;42.642;23.310;2022-09-09T02:20:03;94212.94;;;17.29;96.60
28911;BME280;16028;42.642;23.310;2022-09-09T02:22:33;94200.94;;;17.26;96.41
28911;BME280;16028;42.642;23.310;2022-09-09T02:25:02;94212.47;;;17.25;96.18
28911;BME280;16028;42.642;23.310;2022-09-09T02:27:31;94205.22;;;17.27;95.62
28911;BME280;16028;42.642;23.310;2022-09-09T02:30:00;94205.41;;;17.26;95.01
28911;BME280;16028;42.642;23.310;2022-09-09T02:32:30;94208.81;;;17.26;95.22
28911;BME280;16028;42.642;23.310;2022-09-09T02:35:03;94220.63;;;17.16;95.15
28911;BME280;16028;42.642;23.310;2022-09-09T02:37:34;94222.00;;;17.12;96.08
28911;BME280;16028;42.642;23.310;2022-09-09T02:40:03;94223.44;;;17.14;95.76
28911;BME280;16028;42.642;23.310;2022-09-09T02:42:31;94227.69;;;17.15;95.75
28911;BME280;16028;42.642;23.310;2022-09-09T02:44:59;94232.50;;;17.12;95.51
28911;BME280;16028;42.642;23.310;2022-09-09T02:47:30;94232.13;;;17.15;95.15
28911;BME280;16028;42.642;23.310;2022-09-09T02:50:11;94225.97;;;17.08;94.47
28911;BME280;16028;42.642;23.310;2022-09-09T02:52:47;94231.13;;;17.01;95.31
28911;BME280;16028;42.642;23.310;2022-09-09T02:55:21;94236.59;;;17.00;95.21
28911;BME280;16028;42.642;23.310;2022-09-09T02:57:50;94238.84;;;17.03;95.60
28911;BME280;16028;42.642;23.310;2022-09-09T03:00:24;94230.69;;;16.98;95.77
28911;BME280;16028;42.642;23.310;2022-09-09T03:02:51;94227.88;;;16.99;96.03
28911;BME280;16028;42.642;23.310;2022-09-09T03:05:18;94225.00;;;16.94;96.07
28911;BME280;16028;42.642;23.310;2022-09-09T03:07:46;94222.06;;;16.89;96.24
28911;BME280;16028;42.642;23.310;2022-09-09T03:10:13;94233.56;;;16.88;96.76
28911;BME280;16028;42.642;23.310;2022-09-09T03:12:40;94230.63;;;16.91;96.80
28911;BME280;16028;42.642;23.310;2022-09-09T03:15:07;94236.03;;;16.89;96.66
28911;BME280;16028;42.642;23.310;2022-09-09T03:17:36;94233.75;;;16.86;96.78
28911;BME280;16028;42.642;23.310;2022-09-09T03:20:03;94235.56;;;16.86;96.84
28911;BME280;16028;42.642;23.310;2022-09-09T03:22:30;94233.13;;;16.84;97.52
28911;BME280;16028;42.642;23.310;2022-09-09T03:24:57;94236.19;;;16.88;97.44
28911;BME280;16028;42.642;23.310;2022-09-09T03:27:24;94233.41;;;16.89;97.47
28911;BME280;16028;42.642;23.310;2022-09-09T03:29:51;94222.44;;;16.86;97.15
28911;BME280;16028;42.642;23.310;2022-09-09T03:32:18;94234.75;;;16.85;96.88
28911;BME280;16028;42.642;23.310;2022-09-09T03:34:49;94230.50;;;16.84;96.16
28911;BME280;16028;42.642;23.310;2022-09-09T03:37:16;94234.75;;;16.85;95.63
28911;BME280;16028;42.642;23.310;2022-09-09T03:39:43;94232.31;;;16.84;95.62
28911;BME280;16028;42.642;23.310;2022-09-09T03:42:12;94235.84;;;16.76;96.01
28911;BME280;16028;42.642;23.310;2022-09-09T03:44:44;94219.91;;;16.78;96.30
28911;BME280;16028;42.642;23.310;2022-09-09T03:47:16;94224.34;;;16.77;96.83
28911;BME280;16028;42.642;23.310;2022-09-09T03:49:43;94226.78;;;16.79;96.80
28911;BME280;16028;42.642;23.310;2022-09-09T03:52:12;94221.63;;;16.85;96.37
28911;BME280;16028;42.642;23.310;2022-09-09T03:54:39;94223.00;;;16.96;95.68
28911;BME280;16028;42.642;23.310;2022-09-09T03:57:08;94224.06;;;16.87;95.04
28911;BME280;16028;42.642;23.310;2022-09-09T03:59:35;94234.75;;;16.85;95.78
28911;BME280;16028;42.642;23.310;2022-09-09T04:02:02;94230.31;;;16.86;96.41
28911;BME280;16028;42.642;23.310;2022-09-09T04:04:29;94234.38;;;16.88;96.49
28911;BME280;16028;42.642;23.310;2022-09-09T04:06:56;94239.13;;;16.93;96.23
28911;BME280;16028;42.642;23.310;2022-09-09T04:09:24;94246.38;;;16.91;95.97
28911;BME280;16028;42.642;23.310;2022-09-09T04:11:51;94244.91;;;16.88;96.38
28911;BME280;16028;42.642;23.310;2022-09-09T04:14:18;94247.44;;;16.82;96.51
28911;BME280;16028;42.642;23.310;2022-09-09T04:16:45;94235.13;;;16.82;96.94
28911;BME280;16028;42.642;23.310;2022-09-09T04:19:12;94229.03;;;16.82;97.38
28911;BME280;16028;42.642;23.310;2022-09-09T04:21:40;94230.50;;;16.84;97.34
28911;BME280;16028;42.642;23.310;2022-09-09T04:24:07;94234.75;;;16.85;97.59
28911;BME280;16028;42.642;23.310;2022-09-09T04:26:36;94228.88;;;16.83;97.08
28911;BME280;16028;42.642;23.310;2022-09-09T04:29:03;94237.47;;;16.77;97.29
28911;BME280;16028;42.642;23.310;2022-09-09T04:31:30;94245.34;;;16.77;97.82
28911;BME280;16028;42.642;23.310;2022-09-09T04:33:57;94238.09;;;16.79;97.56
28911;BME280;16028;42.642;23.310;2022-09-09T04:36:28;94246.28;;;16.84;98.00
28911;BME280;16028;42.642;23.310;2022-09-09T04:38:54;94239.84;;;16.87;98.17
28911;BME280;16028;42.642;23.310;2022-09-09T04:41:21;94245.19;;;16.93;98.26
28911;BME280;16028;42.642;23.310;2022-09-09T04:43:50;94252.44;;;16.91;97.60
28911;BME280;16028;42.642;23.310;2022-09-09T04:46:18;94254.69;;;16.94;96.15
28911;BME280;16028;42.642;23.310;2022-09-09T04:48:45;94249.63;;;16.93;96.45
28911;BME280;16028;42.642;23.310;2022-09-09T04:51:13;94237.56;;;16.99;96.82
28911;BME280;16028;42.642;23.310;2022-09-09T04:53:40;94228.97;;;17.05;97.41
28911;BME280;16028;42.642;23.310;2022-09-09T04:56:08;94223.34;;;17.08;97.92
28911;BME280;16028;42.642;23.310;2022-09-09T04:58:36;94225.25;;;17.14;97.65
28911;BME280;16028;42.642;23.310;2022-09-09T05:01:06;94223.53;;;17.21;97.09
28911;BME280;16028;42.642;23.310;2022-09-09T05:03:33;94229.94;;;17.33;94.92
28911;BME280;16028;42.642;23.310;2022-09-09T05:06:05;94220.31;;;17.40;94.48
28911;BME280;16028;42.642;23.310;2022-09-09T05:08:32;94202.19;;;17.45;94.13
28911;BME280;16028;42.642;23.310;2022-09-09T05:10:58;94199.00;;;17.50;94.73
28911;BME280;16028;42.642;23.310;2022-09-09T05:13:26;94198.63;;;17.53;94.68
28911;BME280;16028;42.642;23.310;2022-09-09T05:15:53;94207.00;;;17.56;94.65
28911;BME280;16028;42.642;23.310;2022-09-09T05:18:22;94223.47;;;17.65;94.26
28911;BME280;16028;42.642;23.310;2022-09-09T05:20:48;94219.50;;;17.69;93.46
28911;BME280;16028;42.642;23.310;2022-09-09T05:23:16;94216.31;;;17.73;92.78
28911;BME280;16028;42.642;23.310;2022-09-09T05:25:43;94199.34;;;17.76;92.06
28911;BME280;16028;42.642;23.310;2022-09-09T05:28:12;94206.69;;;17.80;91.72
28911;BME280;16028;42.642;23.310;2022-09-09T05:30:38;94206.31;;;17.83;92.05
28911;BME280;16028;42.642;23.310;2022-09-09T05:33:05;94204.91;;;17.87;92.71
28911;BME280;16028;42.642;23.310;2022-09-09T05:35:36;94203.44;;;18.00;92.52
28911;BME280;16028;42.642;23.310;2022-09-09T05:38:05;94205.13;;;18.07;92.38
28911;BME280;16028;42.642;23.310;2022-09-09T05:40:32;94200.91;;;18.13;92.27
28911;BME280;16028;42.642;23.310;2022-09-09T05:43:00;94212.22;;;18.28;90.45
28911;BME280;16028;42.642;23.310;2022-09-09T05:45:30;94203.97;;;18.37;89.12
28911;BME280;16028;42.642;23.310;2022-09-09T05:48:00;94221.44;;;18.45;88.67
28911;BME280;16028;42.642;23.310;2022-09-09T05:50:29;94218.22;;;18.43;88.31
28911;BME280;16028;42.642;23.310;2022-09-09T05:52:58;94222.56;;;18.51;88.18
28911;BME280;16028;42.642;23.310;2022-09-09T05:55:25;94208.19;;;18.53;89.04
28911;BME280;16028;42.642;23.310;2022-09-09T05:57:53;94218.13;;;18.79;85.87
28911;BME280;16028;42.642;23.310;2022-09-09T06:00:20;94210.09;;;18.93;85.53
28911;BME280;16028;42.642;23.310;2022-09-09T06:02:50;94215.38;;;18.93;86.40
28911;BME280;16028;42.642;23.310;2022-09-09T06:05:18;94225.13;;;18.99;84.63
28911;BME280;16028;42.642;23.310;2022-09-09T06:07:45;94231.84;;;19.02;85.19
28911;BME280;16028;42.642;23.310;2022-09-09T06:10:16;94236.31;;;19.01;85.77
28911;BME280;16028;42.642;23.310;2022-09-09T06:13:18;94247.28;;;19.05;84.94
28911;BME280;16028;42.642;23.310;2022-09-09T06:15:39;94233.06;;;18.99;85.29
28911;BME280;16028;42.642;23.310;2022-09-09T06:18:18;94238.63;;;19.11;83.71
28911;BME280;16028;42.642;23.310;2022-09-09T06:20:59;94236.25;;;19.23;82.44
28911;BME280;16028;42.642;23.310;2022-09-09T06:23:28;94227.91;;;19.19;83.11
28911;BME280;16028;42.642;23.310;2022-09-09T06:26:05;94235.38;;;19.16;82.57
28911;BME280;16028;42.642;23.310;2022-09-09T06:28:35;94226.00;;;19.07;82.47
28911;BME280;16028;42.642;23.310;2022-09-09T06:31:10;94228.44;;;19.08;82.79
28911;BME280;16028;42.642;23.310;2022-09-09T06:33:42;94234.53;;;19.09;82.68
28911;BME280;16028;42.642;23.310;2022-09-09T06:36:14;94227.69;;;19.14;83.14
28911;BME280;16028;42.642;23.310;2022-09-09T06:38:46;94220.56;;;19.15;82.09
28911;BME280;16028;42.642;23.310;2022-09-09T06:41:21;94222.16;;;19.09;82.15
28911;BME280;16028;42.642;23.310;2022-09-09T06:43:55;94223.84;;;19.17;83.51
28911;BME280;16028;42.642;23.310;2022-09-09T06:46:25;94218.38;;;19.25;81.08
28911;BME280;16028;42.642;23.310;2022-09-09T06:49:03;94220.44;;;19.29;81.21
28911;BME280;16028;42.642;23.310;2022-09-09T06:51:36;94225.56;;;19.37;82.00
28911;BME280;16028;42.642;23.310;2022-09-09T06:54:14;94228.66;;;19.41;82.13
28911;BME280;16028;42.642;23.310;2022-09-09T06:56:55;94236.03;;;19.52;81.23
28911;BME280;16028;42.642;23.310;2022-09-09T06:59:37;94234.00;;;19.54;81.97
28911;BME280;16028;42.642;23.310;2022-09-09T07:02:12;94230.34;;;19.55;80.72
28911;BME280;16028;42.642;23.310;2022-09-09T07:04:57;94233.63;;;19.64;80.87
28911;BME280;16028;42.642;23.310;2022-09-09T07:07:37;94236.72;;;19.74;79.28
28911;BME280;16028;42.642;23.310;2022-09-09T07:10:18;94241.59;;;19.77;79.29
28911;BME280;16028;42.642;23.310;2022-09-09T07:12:57;94234.09;;;19.80;79.53
28911;BME280;16028;42.642;23.310;2022-09-09T07:15:25;94230.25;;;19.83;80.17
28911;BME280;16028;42.642;23.310;2022-09-09T07:17:53;94229.50;;;20.02;77.15
28911;BME280;16028;42.642;23.310;2022-09-09T07:20:27;94239.22;;;20.01;78.87
28911;BME280;16028;42.642;23.310;2022-09-09T07:23:01;94230.13;;;20.17;74.81
28911;BME280;16028;42.642;23.310;2022-09-09T07:25:32;94230.41;;;20.29;74.75
28911;BME280;16028;42.642;23.310;2022-09-09T07:28:11;94217.38;;;20.34;75.40
28911;BME280;16028;42.642;23.310;2022-09-09T07:30:43;94226.13;;;20.41;75.41
28911;BME280;16028;42.642;23.310;2022-09-09T07:33:22;94223.50;;;20.47;73.11
28911;BME280;16028;42.642;23.310;2022-09-09T07:36:09;94211.09;;;20.48;73.91
28911;BME280;16028;42.642;23.310;2022-09-09T07:38:55;94218.22;;;20.54;75.27
28911;BME280;16028;42.642;23.310;2022-09-09T07:41:26;94218.41;;;20.52;74.88
28911;BME280;16028;42.642;23.310;2022-09-09T07:44:08;94222.09;;;20.58;75.16
28911;BME280;16028;42.642;23.310;2022-09-09T07:46:42;94232.47;;;20.79;74.55
28911;BME280;16028;42.642;23.310;2022-09-09T07:49:14;94226.13;;;20.93;71.59
28911;BME280;16028;42.642;23.310;2022-09-09T07:51:43;94233.44;;;21.04;72.09
28911;BME280;16028;42.642;23.310;2022-09-09T07:54:12;94233.06;;;21.14;71.11
28911;BME280;16028;42.642;23.310;2022-09-09T07:56:40;94230.19;;;21.16;71.15
28911;BME280;16028;42.642;23.310;2022-09-09T07:59:11;94223.06;;;21.23;68.80
28911;BME280;16028;42.642;23.310;2022-09-09T08:01:50;94224.50;;;21.19;70.64
28911;BME280;16028;42.642;23.310;2022-09-09T08:04:21;94218.75;;;21.35;70.23
28911;BME280;16028;42.642;23.310;2022-09-09T08:06:56;94216.25;;;21.53;67.91
28911;BME280;16028;42.642;23.310;2022-09-09T08:09:26;94230.69;;;21.57;68.78
28911;BME280;16028;42.642;23.310;2022-09-09T08:11:54;94225.63;;;21.55;70.24
28911;BME280;16028;42.642;23.310;2022-09-09T08:14:23;94224.41;;;21.51;71.13
28911;BME280;16028;42.642;23.310;2022-09-09T08:16:50;94226.41;;;21.62;69.60
28911;BME280;16028;42.642;23.310;2022-09-09T08:19:19;94225.56;;;21.75;70.81
28911;BME280;16028;42.642;23.310;2022-09-09T08:21:46;94225.09;;;21.85;68.39
28911;BME280;16028;42.642;23.310;2022-09-09T08:24:14;94223.03;;;21.87;71.30
28911;BME280;16028;42.642;23.310;2022-09-09T08:26:42;94237.13;;;21.81;70.20
28911;BME280;16028;42.642;23.310;2022-09-09T08:29:11;94223.81;;;22.00;68.84
28911;BME280;16028;42.642;23.310;2022-09-09T08:31:41;94217.56;;;22.26;65.84
28911;BME280;16028;42.642;23.310;2022-09-09T08:34:08;94208.59;;;22.27;65.66
28911;BME280;16028;42.642;23.310;2022-09-09T08:36:37;94215.47;;;22.35;66.41
28911;BME280;16028;42.642;23.310;2022-09-09T08:39:06;94215.25;;;22.36;66.29
28911;BME280;16028;42.642;23.310;2022-09-09T08:41:51;94217.41;;;22.52;67.39
28911;BME280;16028;42.642;23.310;2022-09-09T08:44:26;94216.22;;;22.73;63.93
28911;BME280;16028;42.642;23.310;2022-09-09T08:47:05;94204.81;;;22.73;64.86
28911;BME280;16028;42.642;23.310;2022-09-09T08:49:57;94209.75;;;22.94;61.44
28911;BME280;16028;42.642;23.310;2022-09-09T08:52:29;94209.78;;;22.87;64.35
28911;BME280;16028;42.642;23.310;2022-09-09T08:55:02;94213.09;;;22.83;64.88
28911;BME280;16028;42.642;23.310;2022-09-09T08:57:31;94214.72;;;22.84;63.67
28911;BME280;16028;42.642;23.310;2022-09-09T08:59:58;94212.41;;;22.94;64.43
28911;BME280;16028;42.642;23.310;2022-09-09T09:02:34;94207.53;;;22.91;64.49
28911;BME280;16028;42.642;23.310;2022-09-09T09:05:15;94208.91;;;22.93;61.84
28911;BME280;16028;42.642;23.310;2022-09-09T09:07:57;94204.44;;;22.94;62.88
28911;BME280;16028;42.642;23.310;2022-09-09T09:10:36;94211.72;;;22.98;64.52
28911;BME280;16028;42.642;23.310;2022-09-09T09:13:12;94212.91;;;23.02;64.63
28911;BME280;16028;42.642;23.310;2022-09-09T09:15:41;94212.34;;;23.18;66.70
28911;BME280;16028;42.642;23.310;2022-09-09T09:18:11;94209.91;;;23.17;64.23
28911;BME280;16028;42.642;23.310;2022-09-09T09:20:49;94210.59;;;23.31;61.50
28911;BME280;16028;42.642;23.310;2022-09-09T09:23:22;94201.53;;;23.38;62.26
28911;BME280;16028;42.642;23.310;2022-09-09T09:25:50;94200.34;;;23.34;62.18
28911;BME280;16028;42.642;23.310;2022-09-09T09:28:23;94205.53;;;23.47;57.74
28911;BME280;16028;42.642;23.310;2022-09-09T09:30:55;94209.16;;;23.53;59.40
28911;BME280;16028;42.642;23.310;2022-09-09T09:33:27;94208.34;;;23.52;61.57
28911;BME280;16028;42.642;23.310;2022-09-09T09:35:58;94207.31;;;23.53;57.76
28911;BME280;16028;42.642;23.310;2022-09-09T09:38:26;94206.72;;;23.51;60.11
28911;BME280;16028;42.642;23.310;2022-09-09T09:40:54;94196.09;;;23.51;60.27
28911;BME280;16028;42.642;23.310;2022-09-09T09:43:25;94198.44;;;23.59;57.80
28911;BME280;16028;42.642;23.310;2022-09-09T09:45:53;94194.31;;;23.63;59.05
28911;BME280;16028;42.642;23.310;2022-09-09T09:48:20;94190.31;;;23.73;60.14
28911;BME280;16028;42.642;23.310;2022-09-09T09:50:51;94182.56;;;23.71;60.54
28911;BME280;16028;42.642;23.310;2022-09-09T09:53:24;94187.59;;;23.79;60.90
28911;BME280;16028;42.642;23.310;2022-09-09T09:55:55;94179.75;;;23.84;60.37
28911;BME280;16028;42.642;23.310;2022-09-09T09:58:22;94184.41;;;23.89;58.44
28911;BME280;16028;42.642;23.310;2022-09-09T10:00:51;94183.59;;;23.88;58.57
28911;BME280;16028;42.642;23.310;2022-09-09T10:03:22;94179.28;;;23.87;61.15
28911;BME280;16028;42.642;23.310;2022-09-09T10:05:51;94179.44;;;23.92;58.91
28911;BME280;16028;42.642;23.310;2022-09-09T10:08:19;94188.25;;;23.93;60.34
28911;BME280;16028;42.642;23.310;2022-09-09T10:13:47;94194.34;;;23.93;57.46
28911;BME280;16028;42.642;23.310;2022-09-09T10:16:37;94192.00;;;23.85;57.09
28911;BME280;16028;42.642;23.310;2022-09-09T10:19:09;94201.53;;;23.75;58.46
28911;BME280;16028;42.642;23.310;2022-09-09T10:22:20;94198.94;;;23.68;61.27
28911;BME280;16028;42.642;23.310;2022-09-09T10:28:19;94192.75;;;23.92;56.42
28911;BME280;16028;42.642;23.310;2022-09-09T10:31:01;94195.03;;;23.89;58.79
28911;BME280;16028;42.642;23.310;2022-09-09T10:33:36;94198.34;;;23.84;60.43
28911;BME280;16028;42.642;23.310;2022-09-09T10:36:12;94197.44;;;23.90;56.88
28911;BME280;16028;42.642;23.310;2022-09-09T10:38:42;94200.78;;;23.86;59.90
28911;BME280;16028;42.642;23.310;2022-09-09T10:41:19;94200.56;;;23.87;59.08
28911;BME280;16028;42.642;23.310;2022-09-09T10:44:06;94199.59;;;23.82;59.88
28911;BME280;16028;42.642;23.310;2022-09-09T10:46:50;94206.41;;;23.78;60.22
28911;BME280;16028;42.642;23.310;2022-09-09T10:49:27;94204.19;;;23.75;60.64
28911;BME280;16028;42.642;23.310;2022-09-09T10:52:04;94197.19;;;23.80;57.09
28911;BME280;16028;42.642;23.310;2022-09-09T10:54:47;94200.88;;;23.79;61.07
28911;BME280;16028;42.642;23.310;2022-09-09T10:57:22;94199.94;;;23.74;61.82
28911;BME280;16028;42.642;23.310;2022-09-09T10:59:52;94195.56;;;23.79;60.28
28911;BME280;16028;42.642;23.310;2022-09-09T11:02:26;94197.41;;;23.79;60.31
28911;BME280;16028;42.642;23.310;2022-09-09T11:04:58;94190.09;;;23.74;63.99
28911;BME280;16028;42.642;23.310;2022-09-09T11:07:31;94194.63;;;23.74;62.34
28911;BME280;16028;42.642;23.310;2022-09-09T11:10:07;94192.41;;;23.70;61.20
28911;BME280;16028;42.642;23.310;2022-09-09T11:12:42;94201.84;;;23.66;61.90
28911;BME280;16028;42.642;23.310;2022-09-09T11:15:17;94197.56;;;23.65;61.38
28911;BME280;16028;42.642;23.310;2022-09-09T11:17:49;94195.28;;;23.69;61.87
28911;BME280;16028;42.642;23.310;2022-09-09T11:20:17;94192.75;;;23.74;63.13
28911;BME280;16028;42.642;23.310;2022-09-09T11:22:48;94184.53;;;23.94;60.38
28911;BME280;16028;42.642;23.310;2022-09-09T11:25:20;94179.56;;;23.97;60.31
28911;BME280;16028;42.642;23.310;2022-09-09T11:28:04;94175.31;;;23.96;62.02
28911;BME280;16028;42.642;23.310;2022-09-09T11:30:43;94167.09;;;23.98;63.78
28911;BME280;16028;42.642;23.310;2022-09-09T11:33:26;94156.00;;;24.01;63.27
28911;BME280;16028;42.642;23.310;2022-09-09T11:36:07;94149.06;;;24.18;60.75
28911;BME280;16028;42.642;23.310;2022-09-09T11:38:44;94153.09;;;24.20;59.72
28911;BME280;16028;42.642;23.310;2022-09-09T11:41:14;94155.06;;;24.25;59.17
28911;BME280;16028;42.642;23.310;2022-09-09T11:43:43;94150.56;;;24.26;60.21
28911;BME280;16028;42.642;23.310;2022-09-09T11:46:11;94140.75;;;24.26;60.54
28911;BME280;16028;42.642;23.310;2022-09-09T11:48:41;94122.38;;;24.25;61.24
28911;BME280;16028;42.642;23.310;2022-09-09T11:51:12;94101.22;;;24.30;62.64
28911;BME280;16028;42.642;23.310;2022-09-09T11:53:50;94103.09;;;24.41;59.38
28911;BME280;16028;42.642;23.310;2022-09-09T11:56:27;94108.88;;;24.38;61.34
28911;BME280;16028;42.642;23.310;2022-09-09T11:59:01;94115.06;;;24.32;61.42
28911;BME280;16028;42.642;23.310;2022-09-09T12:01:39;94116.72;;;24.33;62.38
28911;BME280;16028;42.642;23.310;2022-09-09T12:04:27;94115.44;;;24.35;62.59
28911;BME280;16028;42.642;23.310;2022-09-09T12:06:58;94115.56;;;24.40;63.61
28911;BME280;16028;42.642;23.310;2022-09-09T12:09:33;94116.75;;;24.67;59.19
28911;BME280;16028;42.642;23.310;2022-09-09T12:12:23;94106.09;;;24.67;59.62
28911;BME280;16028;42.642;23.310;2022-09-09T12:15:01;94104.94;;;24.75;64.84
28911;BME280;16028;42.642;23.310;2022-09-09T12:17:29;94105.06;;;24.80;64.04
28911;BME280;16028;42.642;23.310;2022-09-09T12:20:03;94103.09;;;24.99;56.77
28911;BME280;16028;42.642;23.310;2022-09-09T12:22:39;94091.50;;;25.05;60.39
28911;BME280;16028;42.642;23.310;2022-09-09T12:25:18;94099.88;;;24.97;61.56
28911;BME280;16028;42.642;23.310;2022-09-09T12:28:00;94088.63;;;25.06;58.54
28911;BME280;16028;42.642;23.310;2022-09-09T12:30:34;94089.78;;;25.10;58.64
28911;BME280;16028;42.642;23.310;2022-09-09T12:33:02;94078.31;;;25.10;60.12
28911;BME280;16028;42.642;23.310;2022-09-09T12:35:35;94076.00;;;25.13;59.57
28911;BME280;16028;42.642;23.310;2022-09-09T12:38:05;94080.72;;;25.23;58.18
28911;BME280;16028;42.642;23.310;2022-09-09T12:40:36;94071.25;;;25.15;61.23
28911;BME280;16028;42.642;23.310;2022-09-09T12:43:17;94073.34;;;25.13;59.86
28911;BME280;16028;42.642;23.310;2022-09-09T12:45:45;94074.84;;;25.09;58.94
28911;BME280;16028;42.642;23.310;2022-09-09T12:48:12;94080.38;;;25.19;57.05
28911;BME280;16028;42.642;23.310;2022-09-09T12:50:45;94071.72;;;25.12;59.45
28911;BME280;16028;42.642;23.310;2022-09-09T12:53:18;94064.19;;;25.09;58.43
28911;BME280;16028;42.642;23.310;2022-09-09T12:55:50;94062.91;;;25.12;57.11
28911;BME280;16028;42.642;23.310;2022-09-09T12:58:19;94049.94;;;25.15;59.61
28911;BME280;16028;42.642;23.310;2022-09-09T13:00:51;94053.38;;;25.27;58.93
28911;BME280;16028;42.642;23.310;2022-09-09T13:03:20;94043.41;;;25.35;58.50
28911;BME280;16028;42.642;23.310;2022-09-09T13:05:47;94051.38;;;25.35;60.52
28911;BME280;16028;42.642;23.310;2022-09-09T13:08:16;94053.72;;;25.31;60.74
28911;BME280;16028;42.642;23.310;2022-09-09T13:10:48;94042.84;;;25.33;57.11
28911;BME280;16028;42.642;23.310;2022-09-09T13:13:21;94039.84;;;25.29;57.76
28911;BME280;16028;42.642;23.310;2022-09-09T13:15:51;94038.22;;;25.28;57.36
28911;BME280;16028;42.642;23.310;2022-09-09T13:18:22;94045.72;;;25.31;57.17
28911;BME280;16028;42.642;23.310;2022-09-09T13:20:53;94047.25;;;25.27;57.68
28911;BME280;16028;42.642;23.310;2022-09-09T13:23:27;94036.34;;;25.28;57.48